Time;durP1;ratioP1;P1;durP2;ratioP2;P2;SDS_P1;SDS_P2;PMS_P1;PMS_P2;Temp;Humidity;BMP_temperature;BMP_pressure;BME280_temperature;BME280_humidity;BME280_pressure;Samples;Min_cycle;Max_cycle;Signal;HPM_P1;HPM_P2
2024/02/12 00:01:13;;;;;;;1.48;0.90;;;;;;;6.04;100.00;95206.81;5040114;28;20048;-72
2024/02/12 00:03:39;;;;;;;4.03;0.90;;;;;;;5.97;100.00;95204.81;5051542;28;20123;-72
2024/02/12 00:06:05;;;;;;;1.48;0.70;;;;;;;5.89;100.00;95198.50;5061591;28;20408;-71
2024/02/12 00:08:31;;;;;;;1.25;1.15;;;;;;;5.83;100.00;95204.63;5067568;28;20048;-71
2024/02/12 00:10:59;;;;;;;0.77;0.77;;;;;;;5.80;100.00;95202.66;5058003;28;20368;-69
2024/02/12 00:13:24;;;;;;;1.83;0.90;;;;;;;5.81;100.00;95196.06;5043678;28;20045;-72
2024/02/12 00:15:49;;;;;;;1.63;1.10;;;;;;;5.77;100.00;95196.03;5049318;28;20175;-71
2024/02/12 00:18:15;;;;;;;1.15;0.90;;;;;;;5.78;100.00;95196.81;5047171;28;20064;-70
2024/02/12 00:20:41;;;;;;;2.22;1.10;;;;;;;5.75;100.00;95201.84;5052352;28;20040;-70
2024/02/12 00:23:07;;;;;;;1.67;1.00;;;;;;;5.85;100.00;95205.84;5053245;28;20045;-70
2024/02/12 00:25:33;;;;;;;1.52;1.05;;;;;;;5.83;100.00;95202.69;5039693;28;20047;-70
2024/02/12 00:27:58;;;;;;;1.58;0.90;;;;;;;5.86;100.00;95199.22;5047621;28;20053;-71
2024/02/12 00:30:24;;;;;;;1.73;0.82;;;;;;;5.80;100.00;95198.03;5048777;28;20049;-71
2024/02/12 00:32:49;;;;;;;2.13;1.10;;;;;;;5.83;100.00;95199.97;5055821;28;20075;-71
2024/02/12 00:35:15;;;;;;;4.15;1.00;;;;;;;5.85;100.00;95197.69;5053787;28;20048;-70
2024/02/12 00:37:41;;;;;;;0.95;0.80;;;;;;;5.88;100.00;95205.06;5053496;28;20048;-70
2024/02/12 00:40:09;;;;;;;4.78;0.90;;;;;;;5.89;100.00;95200.44;5047034;28;20055;-71
2024/02/12 00:42:38;;;;;;;1.20;0.82;;;;;;;5.85;100.00;95194.16;5057577;28;20045;-70
2024/02/12 00:45:10;;;;;;;2.25;0.90;;;;;;;5.80;100.00;95192.59;5049495;28;20376;-70
2024/02/12 00:47:36;;;;;;;1.52;0.90;;;;;;;5.70;100.00;95194.03;5049651;28;20144;-70
2024/02/12 00:50:05;;;;;;;1.23;0.70;;;;;;;5.64;100.00;95205.59;5038855;28;20124;-70
2024/02/12 00:52:33;;;;;;;1.50;1.08;;;;;;;5.60;100.00;95211.00;5049095;28;20045;-70
2024/02/12 00:54:59;;;;;;;1.67;0.70;;;;;;;5.53;100.00;95208.19;5048782;28;20045;-71
2024/02/12 00:57:25;;;;;;;1.30;0.90;;;;;;;5.52;100.00;95203.91;5047250;28;20481;-71
2024/02/12 00:59:51;;;;;;;1.63;0.90;;;;;;;5.44;100.00;95204.97;5050921;28;20037;-71
2024/02/12 01:02:17;;;;;;;1.40;0.90;;;;;;;5.39;100.00;95208.81;5043063;28;20047;-71
2024/02/12 01:04:43;;;;;;;1.65;0.93;;;;;;;5.34;100.00;95215.31;5049403;28;20475;-72
2024/02/12 01:07:09;;;;;;;1.58;0.88;;;;;;;5.34;100.00;95209.91;5047057;28;20139;-72
2024/02/12 01:09:34;;;;;;;2.53;0.90;;;;;;;5.34;100.00;95218.03;5054254;28;20082;-70
2024/02/12 01:12:00;;;;;;;1.88;0.80;;;;;;;5.38;100.00;95222.75;5049180;28;20048;-72
2024/02/12 01:14:28;;;;;;;1.88;0.77;;;;;;;5.39;100.00;95214.22;5045441;28;20045;-72
2024/02/12 01:16:55;;;;;;;4.07;1.13;;;;;;;5.43;100.00;95215.06;5048343;28;20053;-72
2024/02/12 01:19:21;;;;;;;1.65;0.90;;;;;;;5.39;100.00;95216.94;5044691;28;20235;-73
2024/02/12 01:21:46;;;;;;;1.23;0.90;;;;;;;5.43;100.00;95211.56;5051307;28;20131;-72
2024/02/12 01:24:14;;;;;;;2.15;0.90;;;;;;;5.47;100.00;95210.44;5041156;28;20676;-72
2024/02/12 01:26:43;;;;;;;1.58;0.90;;;;;;;5.46;100.00;95221.69;5042013;28;20053;-72
2024/02/12 01:29:08;;;;;;;1.25;0.80;;;;;;;5.49;100.00;95215.50;5042292;28;20064;-72
2024/02/12 01:31:36;;;;;;;3.13;1.48;;;;;;;5.44;100.00;95211.19;5047874;28;20155;-72
2024/02/12 01:34:04;;;;;;;1.70;1.08;;;;;;;5.50;100.00;95215.13;5043713;28;20075;-71
2024/02/12 01:36:31;;;;;;;1.77;0.80;;;;;;;5.61;100.00;95228.84;5047899;28;20045;-71
2024/02/12 01:38:57;;;;;;;2.28;0.80;;;;;;;5.67;100.00;95218.44;5047591;28;20044;-71
2024/02/12 01:41:24;;;;;;;3.22;0.85;;;;;;;5.60;100.00;95224.56;5043788;28;20519;-72
2024/02/12 01:43:51;;;;;;;1.98;0.90;;;;;;;5.60;100.00;95221.88;5048323;28;20059;-71
2024/02/12 01:46:19;;;;;;;5.55;3.08;;;;;;;5.69;100.00;95219.63;5038668;28;20384;-71
2024/02/12 01:48:45;;;;;;;1.48;1.00;;;;;;;5.72;100.00;95231.69;5049892;28;20041;-71
2024/02/12 01:51:12;;;;;;;1.33;1.00;;;;;;;5.71;100.00;95220.03;5043833;28;20572;-71
2024/02/12 01:53:38;;;;;;;0.98;0.80;;;;;;;5.72;100.00;95229.75;5062906;28;20045;-71
2024/02/12 01:56:08;;;;;;;1.65;0.80;;;;;;;5.67;100.00;95223.84;5031030;28;20044;-71
2024/02/12 01:58:34;;;;;;;;;;;;;;;5.75;100.00;95223.56;5047857;28;20049;-71
2024/02/12 02:01:00;;;;;;;3.47;0.80;;;;;;;5.68;100.00;95226.22;5042652;28;19923;-71
2024/02/12 02:03:27;;;;;;;1.25;1.00;;;;;;;5.67;100.00;95224.66;5043781;28;20045;-71
2024/02/12 02:05:52;;;;;;;3.45;1.00;;;;;;;5.67;100.00;95229.28;5054129;28;20041;-71
2024/02/12 02:08:19;;;;;;;1.50;0.80;;;;;;;5.68;100.00;95222.72;5056239;28;20102;-71
2024/02/12 02:10:48;;;;;;;2.50;0.98;;;;;;;5.67;100.00;95221.16;5049968;28;20037;-71
2024/02/12 02:13:15;;;;;;;2.28;1.00;;;;;;;5.70;100.00;95225.84;5042442;28;20132;-70
2024/02/12 02:15:42;;;;;;;2.50;0.90;;;;;;;5.72;100.00;95221.59;5046742;28;20067;-71
2024/02/12 02:18:08;;;;;;;1.33;1.05;;;;;;;5.67;100.00;95221.94;5042848;28;20123;-71
2024/02/12 02:20:35;;;;;;;0.85;0.80;;;;;;;5.70;100.00;95226.63;5053736;28;20044;-71
2024/02/12 02:23:01;;;;;;;1.98;0.80;;;;;;;5.69;100.00;95222.34;5038344;28;20411;-71
2024/02/12 02:25:26;;;;;;;1.42;1.05;;;;;;;5.74;100.00;95213.88;5039911;28;20094;-70
2024/02/12 02:27:51;;;;;;;2.60;1.10;;;;;;;5.64;100.00;95225.41;5037797;28;20082;-71
2024/02/12 02:30:19;;;;;;;1.80;1.00;;;;;;;5.64;100.00;95221.91;5025816;28;20061;-71
2024/02/12 02:32:44;;;;;;;3.30;1.10;;;;;;;5.62;100.00;95227.69;5047920;28;20033;-71
2024/02/12 02:35:10;;;;;;;2.20;0.90;;;;;;;5.70;100.00;95226.63;5035164;28;20063;-71
2024/02/12 02:37:36;;;;;;;3.55;0.90;;;;;;;5.79;100.00;95217.41;5038597;28;20080;-72
2024/02/12 02:40:05;;;;;;;0.98;0.80;;;;;;;5.68;100.00;95228.16;5036882;28;20123;-72
2024/02/12 02:42:31;;;;;;;2.17;0.82;;;;;;;5.62;100.00;95235.06;5038402;28;20126;-73
2024/02/12 02:44:56;;;;;;;3.90;1.35;;;;;;;5.60;100.00;95229.22;5040298;28;20495;-71
2024/02/12 02:47:21;;;;;;;1.90;1.08;;;;;;;5.68;100.00;95228.16;5043030;28;20060;-71
2024/02/12 02:49:47;;;;;;;1.50;0.90;;;;;;;5.63;100.00;95226.53;5036752;28;20040;-71
2024/02/12 02:52:13;;;;;;;2.10;0.90;;;;;;;5.65;100.00;95234.31;5034537;28;20544;-71
2024/02/12 02:54:38;;;;;;;2.30;0.95;;;;;;;5.72;100.00;95226.25;5039034;28;20040;-71
2024/02/12 02:57:04;;;;;;;2.17;0.90;;;;;;;5.67;100.00;95232.81;5049776;28;20052;-71
2024/02/12 02:59:30;;;;;;;1.90;0.90;;;;;;;5.67;100.00;95237.44;5042794;28;20041;-71
2024/02/12 03:01:56;;;;;;;2.75;1.27;;;;;;;5.65;100.00;95232.38;5034005;28;20132;-71
2024/02/12 03:04:21;;;;;;;4.72;1.10;;;;;;;5.70;100.00;95223.91;5033982;28;20071;-70
2024/02/12 03:06:47;;;;;;;1.35;0.82;;;;;;;5.65;100.00;95229.66;5041947;28;20041;-71
2024/02/12 03:09:13;;;;;;;4.40;0.95;;;;;;;5.64;100.00;95224.63;5054152;28;20397;-70
2024/02/12 03:11:39;;;;;;;1.88;0.90;;;;;;;5.58;100.00;95234.22;5041137;28;20040;-71
2024/02/12 03:14:08;;;;;;;1.40;0.88;;;;;;;5.57;100.00;95230.75;5034884;28;20049;-71
2024/02/12 03:16:35;;;;;;;1.47;0.90;;;;;;;5.53;100.00;95236.13;5041971;28;20041;-70
2024/02/12 03:19:01;;;;;;;0.98;0.93;;;;;;;5.44;100.00;95234.84;5049756;28;20044;-72
2024/02/12 03:21:27;;;;;;;3.00;0.90;;;;;;;5.40;100.00;95244.88;5035160;28;20052;-70
2024/02/12 03:23:53;;;;;;;1.70;0.90;;;;;;;5.39;100.00;95251.47;5049274;28;20044;-70
2024/02/12 03:26:19;;;;;;;1.33;0.90;;;;;;;5.35;100.00;95251.44;5036747;28;20506;-70
2024/02/12 03:28:44;;;;;;;4.22;0.90;;;;;;;5.33;100.00;95251.78;5056432;28;20093;-72
2024/02/12 03:31:11;;;;;;;2.30;0.90;;;;;;;5.35;100.00;95254.13;5055691;28;20376;-70
2024/02/12 03:33:36;;;;;;;1.73;0.90;;;;;;;5.35;100.00;95263.06;5039914;28;20044;-71
2024/02/12 03:36:02;;;;;;;1.63;1.00;;;;;;;5.42;100.00;95258.84;5035887;28;20049;-72
2024/02/12 03:38:28;;;;;;;2.72;1.00;;;;;;;5.44;100.00;95261.97;5053458;28;20675;-71
2024/02/12 03:40:54;;;;;;;1.83;0.90;;;;;;;5.39;100.00;95265.03;5044050;28;20102;-70
2024/02/12 03:43:24;;;;;;;2.45;1.10;;;;;;;5.38;100.00;95263.47;5037779;28;20044;-71
2024/02/12 03:45:50;;;;;;;1.58;1.00;;;;;;;5.43;100.00;95261.22;5042872;28;20037;-71
2024/02/12 04:01:56;;;;;;;0.80;0.73;;;;;;;5.39;100.00;95281.34;5056008;28;20089;-69
2024/02/12 04:04:21;;;;;;;1.90;1.00;;;;;;;5.47;100.00;95285.69;5040033;28;20585;-71
2024/02/12 04:06:47;;;;;;;3.33;1.00;;;;;;;5.46;100.00;95284.91;5047506;28;20040;-71
2024/02/12 04:09:12;;;;;;;1.95;1.00;;;;;;;5.48;100.00;95290.75;5055230;28;20041;-72
2024/02/12 04:11:42;;;;;;;1.73;1.00;;;;;;;5.45;100.00;95294.22;5044845;28;20065;-75
2024/02/12 04:14:09;;;;;;;1.88;0.93;;;;;;;5.46;100.00;95300.44;5039948;28;20041;-74
2024/02/12 04:16:36;;;;;;;2.25;1.17;;;;;;;5.44;100.00;95310.88;5054298;28;20044;-75
2024/02/12 04:19:03;;;;;;;2.03;0.90;;;;;;;5.57;100.00;95306.78;5037541;28;20528;-76
2024/02/12 04:21:32;;;;;;;1.42;1.00;;;;;;;5.58;100.00;95313.00;5039619;28;20045;-74
2024/02/12 04:23:58;;;;;;;1.15;1.00;;;;;;;5.73;100.00;95317.47;5047219;28;20037;-74
2024/02/12 04:26:24;;;;;;;1.65;0.93;;;;;;;5.66;100.00;95314.66;5039300;28;20055;-72
2024/02/12 04:28:49;;;;;;;1.95;0.93;;;;;;;5.60;100.00;95318.84;5042450;28;20045;-74
2024/02/12 04:31:15;;;;;;;3.65;1.10;;;;;;;5.58;100.00;95326.56;5032686;28;20032;-74
2024/02/12 04:33:41;;;;;;;2.40;1.13;;;;;;;5.58;100.00;95327.34;5041299;28;20036;-73
2024/02/12 04:36:08;;;;;;;1.88;1.00;;;;;;;5.60;100.00;95332.41;5034486;28;20547;-76
2024/02/12 04:38:35;;;;;;;3.35;1.15;;;;;;;5.52;100.00;95334.25;5041673;28;20395;-73
2024/02/12 04:41:00;;;;;;;2.85;1.30;;;;;;;5.53;100.00;95328.47;5055955;28;20434;-74
2024/02/12 04:43:27;;;;;;;2.13;1.13;;;;;;;5.54;100.00;95332.72;5045404;28;20043;-74
2024/02/12 04:45:52;;;;;;;2.45;1.10;;;;;;;5.63;100.00;95337.13;5045014;28;20036;-74
2024/02/12 04:48:18;;;;;;;3.97;1.25;;;;;;;5.73;100.00;95331.84;5046092;28;20041;-74
2024/02/12 04:50:45;;;;;;;3.30;1.10;;;;;;;5.70;100.00;95332.56;5040477;28;20043;-74
2024/02/12 04:53:11;;;;;;;2.13;1.40;;;;;;;5.62;100.00;95340.97;5036433;28;20049;-75
2024/02/12 04:55:36;;;;;;;3.63;1.60;;;;;;;5.58;100.00;95332.78;5042369;28;20037;-74
2024/02/12 04:58:02;;;;;;;1.20;1.00;;;;;;;5.48;100.00;95344.31;5028833;28;20701;-75
2024/02/12 05:00:30;;;;;;;1.52;1.10;;;;;;;5.52;100.00;95337.75;5041236;28;20072;-74
2024/02/12 05:02:58;;;;;;;3.17;1.60;;;;;;;5.45;100.00;95337.66;5057149;28;20044;-74
2024/02/12 05:05:24;;;;;;;3.33;1.25;;;;;;;5.52;100.00;95340.47;5012224;28;20513;-74
2024/02/12 05:07:49;;;;;;;2.30;1.40;;;;;;;5.46;100.00;95338.47;5070459;28;20036;-75
2024/02/12 05:10:14;;;;;;;2.05;1.20;;;;;;;5.44;100.00;95336.09;5042947;28;20045;-74
2024/02/12 05:12:40;;;;;;;2.28;1.25;;;;;;;5.49;100.00;95335.78;5036413;28;20037;-74
2024/02/12 05:15:09;;;;;;;3.05;1.50;;;;;;;5.44;100.00;95333.38;5030180;28;20071;-74
2024/02/12 05:18:06;;;;;;;2.35;1.20;;;;;;;5.46;100.00;95339.22;5032983;28;20036;-74
2024/02/12 05:23:16;;;;;;;3.58;1.38;;;;;;;5.49;100.00;95324.13;5036446;28;20045;-73
2024/02/12 05:25:43;;;;;;;3.22;1.38;;;;;;;5.45;100.00;95326.78;5053251;28;20039;-74
2024/02/12 05:28:09;;;;;;;5.65;1.38;;;;;;;5.46;100.00;95335.75;5027574;28;20065;-73
2024/02/12 05:30:34;;;;;;;1.80;1.40;;;;;;;5.44;100.00;95329.88;5061460;28;20088;-73
2024/02/12 05:33:00;;;;;;;3.83;1.60;;;;;;;5.42;100.00;95340.31;5044331;28;20040;-73
2024/02/12 05:35:26;;;;;;;2.72;1.73;;;;;;;5.42;100.00;95335.69;5043645;28;20044;-74
2024/02/12 05:37:52;;;;;;;4.70;1.20;;;;;;;5.57;100.00;95331.22;5040886;28;20183;-74
2024/02/12 05:40:20;;;;;;;3.58;1.50;;;;;;;5.49;100.00;95341.22;5035291;28;20050;-74
2024/02/12 05:42:45;;;;;;;4.82;2.22;;;;;;;5.47;100.00;95345.44;5040890;28;20069;-75
2024/02/12 05:45:11;;;;;;;2.90;1.88;;;;;;;5.44;100.00;95344.25;5036540;28;20118;-75
2024/02/12 05:47:36;;;;;;;2.42;1.52;;;;;;;5.38;100.00;95348.41;5040465;28;20041;-74
2024/02/12 05:50:02;;;;;;;3.40;1.73;;;;;;;5.38;100.00;95348.41;5038056;28;20044;-78
2024/02/12 05:52:27;;;;;;;3.17;1.70;;;;;;;5.41;100.00;95355.84;5041038;28;20049;-74
2024/02/12 05:54:53;;;;;;;3.05;1.60;;;;;;;5.40;100.00;95348.81;5045180;28;20860;-74
2024/02/12 05:57:18;;;;;;;4.20;1.88;;;;;;;5.37;100.00;95352.28;5048395;28;20052;-76
2024/02/12 05:59:44;;;;;;;3.25;1.70;;;;;;;5.45;100.00;95355.88;5044695;28;20144;-75
2024/02/12 06:02:09;;;;;;;4.13;1.88;;;;;;;5.40;100.00;95351.53;5032286;28;20056;-76
2024/02/12 06:04:34;;;;;;;4.10;2.08;;;;;;;5.40;100.00;95362.41;5040083;28;20124;-75
2024/02/12 06:07:00;;;;;;;5.82;1.83;;;;;;;5.41;100.00;95361.25;5055611;28;20052;-76
2024/02/12 06:09:27;;;;;;;3.97;1.60;;;;;;;5.44;100.00;95360.53;5068452;28;20381;-74
2024/02/12 06:11:53;;;;;;;2.63;1.70;;;;;;;5.46;100.00;95360.19;5045445;28;20079;-75
2024/02/12 06:14:19;;;;;;;2.63;1.30;;;;;;;5.48;100.00;95369.53;5048225;28;20037;-75
2024/02/12 06:16:45;;;;;;;2.00;1.40;;;;;;;5.47;100.00;95364.44;5044825;28;20067;-75
2024/02/12 06:19:10;;;;;;;4.35;1.83;;;;;;;5.55;100.00;95375.06;5062958;28;20048;-75
2024/02/12 06:21:36;;;;;;;2.40;1.35;;;;;;;5.54;100.00;95369.97;5039786;28;20049;-73
2024/02/12 06:24:04;;;;;;;3.53;1.50;;;;;;;5.50;100.00;95380.03;5036773;28;20053;-75
2024/02/12 06:26:31;;;;;;;2.83;1.70;;;;;;;5.46;100.00;95385.41;5039568;28;20041;-75
2024/02/12 06:28:57;;;;;;;2.50;1.30;;;;;;;5.47;100.00;95384.22;5046175;28;20541;-74
2024/02/12 06:31:22;;;;;;;2.63;1.75;;;;;;;5.51;100.00;95379.66;5027643;28;20042;-74
2024/02/12 06:33:47;;;;;;;4.07;1.50;;;;;;;5.45;100.00;95391.19;5040837;28;20056;-75
2024/02/12 06:36:13;;;;;;;4.88;1.42;;;;;;;5.47;100.00;95391.59;5033522;28;20037;-74
2024/02/12 06:38:38;;;;;;;3.70;1.50;;;;;;;5.62;100.00;95389.88;5040143;28;20044;-75
2024/02/12 06:41:05;;;;;;;3.55;1.63;;;;;;;5.70;100.00;95397.00;5036880;28;20037;-76
2024/02/12 06:43:31;;;;;;;2.75;1.60;;;;;;;5.68;100.00;95396.56;5041142;28;20052;-74
2024/02/12 06:45:57;;;;;;;4.05;1.50;;;;;;;5.61;100.00;95401.91;5038050;28;20330;-73
2024/02/12 06:48:23;;;;;;;3.25;1.55;;;;;;;5.57;100.00;95404.56;5034867;28;20059;-74
2024/02/12 06:50:48;;;;;;;2.63;1.60;;;;;;;5.59;100.00;95413.13;5045158;28;20032;-73
2024/02/12 06:53:14;;;;;;;3.95;1.50;;;;;;;5.69;100.00;95417.13;5037327;28;20079;-74
2024/02/12 06:55:39;;;;;;;4.07;1.40;;;;;;;5.78;100.00;95422.31;5038667;28;20048;-74
2024/02/12 06:58:07;;;;;;;2.30;1.52;;;;;;;5.77;100.00;95423.47;5041782;28;20120;-72
2024/02/12 07:00:34;;;;;;;5.07;1.52;;;;;;;5.74;100.00;95424.97;5059459;28;20423;-74
2024/02/12 07:03:00;;;;;;;2.65;1.40;;;;;;;5.87;100.00;95429.06;5044732;28;20195;-74
2024/02/12 07:05:26;;;;;;;3.65;1.67;;;;;;;5.85;100.00;95425.13;5042696;28;20119;-74
2024/02/12 07:07:51;;;;;;;2.80;1.73;;;;;;;5.89;100.00;95432.19;5052367;28;20545;-74
2024/02/12 07:10:17;;;;;;;3.17;1.60;;;;;;;5.96;100.00;95431.56;5032468;28;20037;-74
2024/02/12 07:12:42;;;;;;;7.70;1.83;;;;;;;6.11;100.00;95430.56;5050109;28;20137;-73
2024/02/12 07:15:09;;;;;;;5.32;2.03;;;;;;;6.13;100.00;95435.66;5059946;28;20126;-74
2024/02/12 07:17:35;;;;;;;6.20;2.20;;;;;;;6.20;100.00;95440.41;5059260;28;20581;-75
2024/02/12 07:20:05;;;;;;;6.97;2.58;;;;;;;6.22;100.00;95438.88;5041750;28;20037;-76
2024/02/12 07:22:32;;;;;;;7.78;2.53;;;;;;;6.25;100.00;95440.09;5045004;28;20033;-75
2024/02/12 07:24:58;;;;;;;2.78;1.65;;;;;;;6.34;100.00;95446.03;5051622;28;20123;-75
2024/02/12 07:27:24;;;;;;;5.57;1.67;;;;;;;6.34;100.00;95453.38;5056415;28;20040;-74
2024/02/12 07:29:49;;;;;;;1.85;1.40;;;;;;;6.18;100.00;95453.59;5061774;28;20033;-74
2024/02/12 07:32:15;;;;;;;4.45;1.60;;;;;;;6.15;100.00;95455.09;5040472;28;20041;-74
2024/02/12 07:34:41;;;;;;;4.88;1.52;;;;;;;6.17;100.00;95460.94;5060534;28;20055;-75
2024/02/12 07:37:07;;;;;;;4.78;1.88;;;;;;;6.06;100.00;95457.28;5041131;28;20084;-75
2024/02/12 07:39:33;;;;;;;5.22;1.85;;;;;;;5.92;100.00;95450.50;5045164;28;20145;-75
2024/02/12 07:42:03;;;;;;;7.07;3.30;;;;;;;5.93;100.00;95459.41;5057694;28;20452;-75
2024/02/12 07:44:29;;;;;;;6.63;2.20;;;;;;;6.07;100.00;95458.88;5047153;28;20060;-74
2024/02/12 07:46:54;;;;;;;5.85;2.50;;;;;;;6.07;100.00;95464.31;5061303;28;20445;-75
2024/02/12 07:49:20;;;;;;;4.43;1.92;;;;;;;6.13;100.00;95468.28;5047395;28;20065;-75
2024/02/12 07:51:46;;;;;;;4.28;2.45;;;;;;;6.40;100.00;95466.28;5050616;28;20051;-75
2024/02/12 07:54:12;;;;;;;4.40;1.70;;;;;;;6.56;100.00;95476.22;5047797;28;20040;-73
2024/02/12 07:56:37;;;;;;;3.45;1.60;;;;;;;6.44;100.00;95475.28;5046401;28;20691;-75
2024/02/12 07:59:03;;;;;;;2.70;1.63;;;;;;;6.54;100.00;95478.50;5045003;28;20518;-77
2024/02/12 08:01:29;;;;;;;2.58;1.70;;;;;;;6.62;100.00;95482.88;5058775;28;20068;-73
2024/02/12 08:03:55;;;;;;;6.53;1.75;;;;;;;6.55;100.00;95483.56;5042540;28;20072;-74
2024/02/12 08:06:20;;;;;;;4.70;1.80;;;;;;;6.51;100.00;95485.47;5049792;28;20043;-76
2024/02/12 08:08:47;;;;;;;4.78;1.45;;;;;;;6.47;100.00;95484.66;5039922;28;20041;-75
2024/02/12 08:11:15;;;;;;;2.55;1.50;;;;;;;6.49;100.00;95490.50;5051230;28;20047;-75
2024/02/12 08:13:41;;;;;;;3.10;1.42;;;;;;;6.54;100.00;95483.97;5048429;28;20037;-75
2024/02/12 08:16:07;;;;;;;3.88;1.60;;;;;;;6.64;100.00;95492.22;5042090;28;20126;-74
2024/02/12 08:18:33;;;;;;;2.67;1.27;;;;;;;6.72;100.00;95493.09;5045276;28;20049;-74
2024/02/12 08:20:58;;;;;;;3.60;1.50;;;;;;;6.72;100.00;95504.00;5056360;28;20064;-74
2024/02/12 08:23:24;;;;;;;2.78;1.60;;;;;;;6.65;100.00;95501.19;5031853;28;20040;-75
2024/02/12 08:25:52;;;;;;;3.00;1.40;;;;;;;6.60;100.00;95505.00;5032895;28;20511;-73
2024/02/12 08:28:18;;;;;;;3.25;1.35;;;;;;;6.68;100.00;95508.59;5031884;28;20587;-73
2024/02/12 08:30:44;;;;;;;2.33;1.45;;;;;;;6.75;100.00;95508.69;5033758;28;20132;-73
2024/02/12 08:33:11;;;;;;;5.03;2.05;;;;;;;6.81;100.00;95506.44;5038973;28;20124;-76
2024/02/12 08:35:36;;;;;;;5.22;1.83;;;;;;;6.92;100.00;95517.44;5047954;28;20041;-74
2024/02/12 08:38:03;;;;;;;2.80;1.20;;;;;;;6.86;100.00;95514.25;5043071;28;20063;-74
2024/02/12 08:40:30;;;;;;;2.70;1.42;;;;;;;6.81;100.00;95523.53;5045450;28;20049;-74
2024/02/12 08:42:56;;;;;;;4.97;1.60;;;;;;;6.96;100.00;95519.03;5049913;28;20404;-73
2024/02/12 08:45:22;;;;;;;2.13;1.30;;;;;;;6.82;100.00;95516.94;5048636;28;20047;-75
2024/02/12 08:47:47;;;;;;;2.25;1.17;;;;;;;6.72;100.00;95527.69;5043562;28;20036;-75
2024/02/12 08:50:13;;;;;;;2.22;1.48;;;;;;;6.61;100.00;95524.81;5050437;28;20048;-75
2024/02/12 08:52:38;;;;;;;3.67;1.70;;;;;;;6.58;100.00;95528.31;5039481;28;20044;-75
2024/02/12 08:55:08;;;;;;;7.22;2.78;;;;;;;6.53;100.00;95537.56;5044389;28;20052;-75
2024/02/12 08:57:34;;;;;;;3.00;1.60;;;;;;;6.68;100.00;95533.06;5048034;28;20399;-75
2024/02/12 09:00:00;;;;;;;2.83;1.55;;;;;;;6.76;100.00;95540.19;5050370;28;20044;-75
2024/02/12 09:02:27;;;;;;;1.98;1.02;;;;;;;6.79;100.00;95535.94;5037248;28;20044;-75
2024/02/12 09:04:52;;;;;;;3.17;1.20;;;;;;;6.69;100.00;95540.88;5048969;28;20067;-75
2024/02/12 09:07:20;;;;;;;2.03;1.27;;;;;;;6.78;100.00;95542.53;5052770;28;20037;-74
2024/02/12 09:09:46;;;;;;;3.33;1.20;;;;;;;7.09;100.00;95544.06;5041646;28;20088;-74
2024/02/12 09:12:13;;;;;;;2.20;1.10;;;;;;;6.91;100.00;95549.31;5036577;28;20081;-74
2024/02/12 09:14:38;;;;;;;1.88;1.30;;;;;;;7.18;100.00;95560.13;5049312;28;20494;-75
2024/02/12 09:17:04;;;;;;;2.67;1.48;;;;;;;7.15;100.00;95552.69;5030677;28;20124;-74
2024/02/12 09:19:29;;;;;;;1.85;1.15;;;;;;;7.40;100.00;95559.19;5041322;28;20051;-74
2024/02/12 09:21:55;;;;;;;3.58;1.40;;;;;;;7.55;100.00;95553.91;5051125;28;20043;-74
2024/02/12 09:24:22;;;;;;;3.92;1.55;;;;;;;7.26;100.00;95561.78;5036164;28;20146;-75
2024/02/12 09:26:47;;;;;;;4.60;1.30;;;;;;;7.15;100.00;95558.13;5041409;28;20036;-74
2024/02/12 09:29:13;;;;;;;1.83;0.93;;;;;;;7.24;100.00;95564.09;5042852;28;20040;-75
2024/02/12 09:31:38;;;;;;;2.28;1.10;;;;;;;7.38;100.00;95558.00;5049550;28;20037;-75
2024/02/12 09:34:03;;;;;;;2.33;1.10;;;;;;;7.59;100.00;95560.94;5035773;28;20033;-76
2024/02/12 09:36:29;;;;;;;2.38;1.20;;;;;;;7.59;100.00;95562.88;5040489;28;20037;-75
2024/02/12 09:38:55;;;;;;;1.95;1.25;;;;;;;7.72;100.00;95563.38;5049082;28;20132;-74
2024/02/12 09:41:28;;;;;;;3.30;1.13;;;;;;;7.77;100.00;95560.31;5035809;28;20729;-74
2024/02/12 09:43:55;;;;;;;1.52;1.15;;;;;;;7.60;100.00;95572.63;5039799;28;20033;-75
2024/02/12 09:46:21;;;;;;;2.42;1.30;;;;;;;7.36;100.00;95577.44;5035543;28;20246;-73
2024/02/12 09:48:48;;;;;;;4.00;1.15;;;;;;;7.30;100.00;95570.75;5040507;28;20186;-75
2024/02/12 09:51:15;;;;;;;1.90;1.27;;;;;;;7.19;100.00;95573.38;5035302;28;20076;-73
2024/02/12 09:53:43;;;;;;;2.38;1.42;;;;;;;6.98;100.00;95579.34;5039206;28;20439;-72
2024/02/12 09:56:13;;;;;;;3.92;1.45;;;;;;;7.21;100.00;95571.03;5016143;28;20090;-74
2024/02/12 09:58:38;;;;;;;;;;;;;;;7.35;100.00;95580.56;5041829;28;20036;-72
2024/02/12 10:01:07;;;;;;;2.83;1.50;;;;;;;7.31;100.00;95583.22;5048946;28;19969;-77
2024/02/12 10:03:33;;;;;;;3.20;1.80;;;;;;;7.84;100.00;95580.22;5041443;28;20531;-74
2024/02/12 10:05:59;;;;;;;3.40;1.80;;;;;;;8.12;100.00;95578.13;5066799;28;20048;-74
2024/02/12 10:08:26;;;;;;;3.13;1.48;;;;;;;8.15;100.00;95580.09;5043934;28;20048;-74
2024/02/12 10:10:52;;;;;;;3.25;1.70;;;;;;;8.09;100.00;95582.41;5032447;28;20049;-74
2024/02/12 10:13:19;;;;;;;4.20;2.15;;;;;;;8.19;100.00;95572.72;5034827;28;20041;-74
2024/02/12 10:15:46;;;;;;;4.18;2.47;;;;;;;8.18;100.00;95588.31;5051018;28;20047;-71
2024/02/12 10:18:15;;;;;;;7.28;1.73;;;;;;;8.11;100.00;95584.75;5061998;22;20057;-73
2024/02/12 10:20:42;;;;;;;3.90;1.50;;;;;;;8.13;100.00;95580.47;5012548;28;20048;-73
2024/02/12 10:23:15;;;;;;;3.97;2.08;;;;;;;8.02;100.00;95585.84;5023873;28;20135;-74
2024/02/12 10:25:43;;;;;;;2.78;1.60;;;;;;;8.35;100.00;95586.09;5014145;28;20148;-74
2024/02/12 10:28:13;;;;;;;5.88;1.95;;;;;;;8.69;100.00;95585.94;5017412;28;20109;-76
2024/02/12 10:30:41;;;;;;;3.65;1.67;;;;;;;8.68;100.00;95576.97;5009363;28;20049;-75
2024/02/12 10:33:07;;;;;;;3.65;1.98;;;;;;;8.93;100.00;95590.78;5013442;28;20049;-75
2024/02/12 10:35:38;;;;;;;7.60;2.45;;;;;;;9.04;100.00;95588.09;5024337;28;20049;-75
2024/02/12 10:38:06;;;;;;;4.55;1.50;;;;;;;9.01;100.00;95583.38;5035648;28;20059;-75
2024/02/12 10:40:39;;;;;;;6.30;2.28;;;;;;;8.68;100.00;95581.63;5036280;28;20102;-72
2024/02/12 10:43:05;;;;;;;3.72;1.77;;;;;;;8.78;100.00;95589.88;5033843;28;20041;-72
2024/02/12 10:45:31;;;;;;;6.50;1.80;;;;;;;8.96;100.00;95583.75;5037750;28;20064;-73
2024/02/12 10:47:57;;;;;;;4.90;1.90;;;;;;;9.27;100.00;95585.03;5037319;28;20158;-72
2024/02/12 10:50:23;;;;;;;3.78;1.60;;;;;;;9.13;100.00;95583.06;5033765;28;20528;-72
2024/02/12 10:52:49;;;;;;;5.68;1.90;;;;;;;9.02;100.00;95582.22;5039029;28;20403;-73
2024/02/12 10:55:16;;;;;;;6.78;1.98;;;;;;;9.20;100.00;95587.75;5033599;28;20041;-73
2024/02/12 10:57:46;;;;;;;3.42;1.60;;;;;;;9.18;100.00;95584.63;5038788;28;20041;-73
2024/02/12 11:00:23;;;;;;;4.97;1.58;;;;;;;9.69;100.00;95586.34;5034654;28;20045;-74
2024/02/12 11:02:50;;;;;;;6.65;1.50;;;;;;;9.87;100.00;95580.88;5038571;28;20048;-74
2024/02/12 11:05:19;;;;;;;3.90;1.38;;;;;;;10.43;100.00;95580.53;5034307;28;20045;-73
2024/02/12 11:07:45;;;;;;;6.50;1.50;;;;;;;10.47;100.00;95579.34;5045574;28;20495;-73
2024/02/12 11:10:17;;;;;;;3.53;1.63;;;;;;;10.58;100.00;95584.81;5028259;28;20131;-73
2024/02/12 11:12:45;;;;;;;11.13;1.92;;;;;;;10.10;100.00;95579.72;5052642;28;20052;-73
2024/02/12 11:15:19;;;;;;;3.67;1.75;;;;;;;10.09;100.00;95587.16;5031422;28;20041;-74
2024/02/12 11:17:44;;;;;;;5.28;1.70;;;;;;;10.11;100.00;95582.06;5038345;28;20041;-74
2024/02/12 11:20:21;;;;;;;2.90;1.50;;;;;;;10.50;100.00;95584.03;5033272;28;20550;-74
2024/02/12 11:22:47;;;;;;;6.00;1.70;;;;;;;10.86;100.00;95578.50;5023879;28;20486;-72
2024/02/12 11:25:17;;;;;;;7.65;1.77;;;;;;;10.93;100.00;95576.91;5026832;28;20129;-74
2024/02/12 11:27:52;;;;;;;4.20;2.22;;;;;;;10.96;100.00;95576.09;5037532;28;20037;-75
2024/02/12 11:30:18;;;;;;;2.38;1.27;;;;;;;11.17;100.00;95581.50;5032864;28;20052;-75
2024/02/12 11:32:45;;;;;;;7.90;1.85;;;;;;;11.20;100.00;95583.47;5033779;28;20057;-73
2024/02/12 11:35:18;;;;;;;5.35;2.10;;;;;;;11.28;100.00;95579.50;5030193;28;20041;-74
2024/02/12 11:37:56;;;;;;;6.35;1.70;;;;;;;11.12;100.00;95575.66;5027763;28;20198;-74
2024/02/12 11:40:21;;;;;;;3.47;1.55;;;;;;;10.71;100.00;95571.47;5034813;28;20151;-76
2024/02/12 11:42:51;;;;;;;7.80;1.48;;;;;;;11.33;100.00;95566.56;5040218;28;20216;-74
2024/02/12 11:45:25;;;;;;;3.72;1.55;;;;;;;11.59;95.47;95574.25;5030549;28;20046;-75
2024/02/12 11:47:51;;;;;;;6.80;1.25;;;;;;;12.32;95.17;95566.34;5031700;28;20041;-74